createdAt,value
2023-05-14T00:00:03.533Z,63.51
2023-05-14T00:02:53.950Z,63.52
2023-05-14T00:05:20.700Z,63.77
2023-05-14T00:07:47.201Z,63.77
2023-05-14T00:10:13.753Z,63.86
2023-05-14T00:12:40.329Z,64.03
2023-05-14T00:15:07.557Z,63.90
2023-05-14T00:17:34.101Z,64.06
2023-05-14T00:20:00.635Z,64.21
2023-05-14T00:22:27.160Z,63.97
2023-05-14T00:24:54.296Z,64.26
2023-05-14T00:27:20.832Z,64.33
2023-05-14T00:29:48.466Z,64.29
2023-05-14T00:32:15.096Z,64.39
2023-05-14T00:34:41.622Z,64.40
2023-05-14T00:37:08.135Z,64.73
2023-05-14T00:39:34.646Z,64.51
2023-05-14T00:42:01.194Z,64.66
2023-05-14T00:44:27.910Z,64.73
2023-05-14T00:46:54.805Z,64.92
2023-05-14T00:49:21.879Z,64.81
2023-05-14T00:51:48.444Z,65.07
2023-05-14T00:54:17.513Z,65.07
2023-05-14T00:56:45.517Z,65.41
2023-05-14T00:59:13.286Z,65.52
2023-05-14T01:01:39.934Z,65.44
2023-05-14T01:04:07.263Z,65.45
2023-05-14T01:06:59.938Z,65.63
2023-05-14T01:09:41.783Z,65.83
2023-05-14T01:12:33.759Z,65.80
2023-05-14T01:15:20.355Z,65.93
2023-05-14T01:17:55.896Z,66.06
2023-05-14T01:20:22.927Z,66.17
2023-05-14T01:22:50.412Z,66.38
2023-05-14T01:25:17.223Z,66.37
2023-05-14T01:28:02.344Z,66.32
2023-05-14T01:30:35.972Z,66.37
2023-05-14T01:33:09.546Z,66.66
2023-05-14T01:35:36.586Z,66.83
2023-05-14T01:38:06.641Z,67.00
2023-05-14T01:40:35.608Z,67.04
2023-05-14T01:43:03.607Z,67.03
2023-05-14T01:45:30.497Z,67.04
2023-05-14T01:47:57.572Z,67.09
2023-05-14T01:50:24.341Z,67.16
2023-05-14T01:52:53.013Z,67.24
2023-05-14T01:55:19.686Z,67.39
2023-05-14T01:57:46.348Z,67.30
2023-05-14T02:00:13.275Z,67.54
2023-05-14T02:02:42.605Z,67.43
2023-05-14T02:05:11.057Z,67.50
2023-05-14T02:07:38.039Z,67.73
2023-05-14T02:10:05.300Z,67.65
2023-05-14T02:12:31.992Z,67.92
2023-05-14T02:14:58.526Z,67.89
2023-05-14T02:17:26.223Z,68.05
2023-05-14T02:19:52.864Z,68.27
2023-05-14T02:22:19.488Z,68.36
2023-05-14T02:24:46.074Z,68.39
2023-05-14T02:27:12.858Z,68.64
2023-05-14T02:29:39.341Z,68.71
2023-05-14T02:32:06.260Z,68.78
2023-05-14T02:34:34.004Z,68.86
2023-05-14T02:37:01.084Z,69.22
2023-05-14T02:39:27.721Z,69.04
2023-05-14T02:41:54.253Z,69.15
2023-05-14T02:44:20.823Z,69.26
2023-05-14T02:46:47.575Z,69.31
2023-05-14T02:49:14.385Z,69.37
2023-05-14T02:51:40.966Z,69.39
2023-05-14T02:54:07.672Z,69.72
2023-05-14T02:56:34.325Z,69.52
2023-05-14T02:59:00.924Z,69.82
2023-05-14T03:01:28.195Z,69.77
2023-05-14T03:03:56.193Z,69.85
2023-05-14T03:06:22.802Z,69.97
2023-05-14T03:08:49.911Z,70.30
2023-05-14T03:11:16.531Z,70.12
2023-05-14T03:13:43.036Z,70.23
2023-05-14T03:16:09.873Z,70.25
2023-05-14T03:18:36.739Z,70.36
2023-05-14T03:21:03.457Z,70.39
2023-05-14T03:23:31.342Z,70.43
2023-05-14T03:25:58.110Z,70.46
2023-05-14T03:28:25.329Z,70.33
2023-05-14T03:30:52.194Z,70.55
2023-05-14T03:33:19.077Z,70.87
2023-05-14T03:35:45.697Z,70.72
2023-05-14T03:38:15.016Z,70.84
2023-05-14T03:40:41.579Z,71.12
2023-05-14T03:43:08.087Z,71.19
2023-05-14T03:45:34.773Z,71.40
2023-05-14T03:48:01.356Z,71.48
2023-05-14T03:50:29.889Z,71.63
2023-05-14T03:52:56.411Z,72.09
2023-05-14T03:55:23.049Z,72.42
2023-05-14T03:57:49.772Z,72.52
2023-05-14T04:00:16.612Z,72.83
2023-05-14T04:02:45.796Z,72.92
2023-05-14T04:05:12.448Z,72.83
2023-05-14T04:07:38.952Z,73.27
2023-05-14T04:10:06.171Z,73.02
2023-05-14T04:12:35.113Z,73.24
2023-05-14T04:15:02.518Z,73.22
2023-05-14T04:17:29.175Z,73.25
2023-05-14T04:19:56.784Z,73.38
2023-05-14T04:22:24.060Z,73.53
2023-05-14T04:24:51.414Z,73.45
2023-05-14T04:27:21.608Z,73.34
2023-05-14T04:29:49.192Z,73.63
2023-05-14T04:32:16.902Z,73.97
2023-05-14T04:34:43.580Z,73.96
2023-05-14T04:37:10.157Z,74.00
2023-05-14T04:39:37.676Z,73.67
2023-05-14T04:42:05.085Z,73.66
2023-05-14T04:44:35.681Z,73.89
2023-05-14T04:47:02.354Z,73.77
2023-05-14T04:49:29.923Z,73.55
2023-05-14T04:51:57.080Z,73.47
2023-05-14T04:54:23.773Z,73.52
2023-05-14T04:56:50.594Z,73.36
2023-05-14T04:59:17.173Z,73.33
2023-05-14T05:01:44.628Z,73.21
2023-05-14T05:04:11.341Z,73.09
2023-05-14T05:06:37.927Z,72.79
2023-05-14T05:09:04.608Z,72.48
2023-05-14T05:11:31.600Z,72.27
2023-05-14T05:13:58.238Z,72.16
2023-05-14T05:16:24.900Z,71.61
2023-05-14T05:18:51.478Z,70.97
2023-05-14T05:21:18.187Z,70.70
2023-05-14T05:23:44.761Z,70.13
2023-05-14T05:26:11.420Z,69.65
2023-05-14T05:28:37.945Z,69.38
2023-05-14T05:31:04.807Z,68.95
2023-05-14T05:33:31.386Z,68.84
2023-05-14T05:35:57.865Z,68.78
2023-05-14T05:38:24.415Z,68.65
2023-05-14T05:40:51.628Z,68.13
2023-05-14T05:43:18.135Z,67.68
2023-05-14T05:45:45.319Z,67.57
2023-05-14T05:48:11.976Z,67.27
2023-05-14T05:50:39.257Z,66.07
2023-05-14T05:53:05.872Z,65.35
2023-05-14T05:55:32.403Z,65.56
2023-05-14T05:57:58.949Z,65.07
2023-05-14T06:00:26.315Z,64.37
2023-05-14T06:02:53.215Z,63.86
2023-05-14T06:05:20.028Z,63.31
2023-05-14T06:07:46.736Z,63.11
2023-05-14T06:10:14.391Z,62.78
2023-05-14T06:12:40.974Z,63.49
2023-05-14T06:15:08.035Z,62.25
2023-05-14T06:17:34.678Z,61.33
2023-05-14T06:20:02.950Z,61.15
2023-05-14T06:22:29.457Z,61.16
2023-05-14T06:24:56.065Z,60.58
2023-05-14T06:27:22.729Z,60.39
2023-05-14T06:29:49.416Z,60.62
2023-05-14T06:32:16.894Z,60.61
2023-05-14T06:34:43.658Z,59.72
2023-05-14T06:37:10.509Z,59.04
2023-05-14T06:39:37.854Z,59.19
2023-05-14T06:42:04.953Z,59.41
2023-05-14T06:44:31.747Z,58.52
2023-05-14T06:46:58.290Z,58.38
2023-05-14T06:49:24.854Z,58.56
2023-05-14T06:51:51.792Z,58.18
2023-05-14T06:54:19.710Z,57.73
2023-05-14T06:56:47.168Z,56.84
2023-05-14T06:59:13.705Z,57.13
2023-05-14T07:01:40.385Z,56.10
2023-05-14T07:04:07.078Z,56.57
2023-05-14T07:06:34.076Z,56.12
2023-05-14T07:09:01.617Z,55.53
2023-05-14T07:11:28.314Z,55.30
2023-05-14T07:13:54.920Z,55.00
2023-05-14T07:16:21.479Z,54.96
2023-05-14T07:18:48.305Z,55.36
2023-05-14T07:21:22.591Z,55.49
2023-05-14T07:23:55.172Z,55.03
2023-05-14T07:26:23.758Z,54.68
2023-05-14T07:28:50.372Z,53.90
2023-05-14T07:31:17.035Z,54.30
2023-05-14T07:33:43.598Z,53.60
2023-05-14T07:36:10.279Z,54.36
2023-05-14T07:38:36.814Z,53.53
2023-05-14T07:41:03.861Z,53.49
2023-05-14T07:43:30.559Z,52.99
2023-05-14T07:45:57.127Z,53.07
2023-05-14T07:48:23.675Z,52.94
2023-05-14T07:50:51.035Z,53.62
2023-05-14T07:53:17.573Z,53.29
2023-05-14T07:55:47.555Z,52.53
2023-05-14T07:58:14.185Z,52.14
2023-05-14T08:00:40.738Z,51.80
2023-05-14T08:03:07.349Z,51.18
2023-05-14T08:05:33.962Z,51.16
2023-05-14T08:08:00.930Z,51.09
2023-05-14T08:10:27.967Z,51.25
2023-05-14T08:12:55.124Z,51.29
2023-05-14T08:15:21.651Z,51.43
2023-05-14T08:17:50.896Z,51.34
2023-05-14T08:20:18.117Z,50.59
2023-05-14T08:22:44.616Z,50.82
2023-05-14T08:25:11.407Z,49.91
2023-05-14T08:27:37.915Z,50.46
2023-05-14T08:30:05.751Z,49.98
2023-05-14T08:32:32.268Z,50.67
2023-05-14T08:34:58.953Z,50.14
2023-05-14T08:37:25.638Z,50.28
2023-05-14T08:40:01.566Z,50.12
2023-05-14T08:42:30.429Z,50.17
2023-05-14T08:45:01.794Z,49.29
2023-05-14T08:47:30.160Z,49.31
2023-05-14T08:50:05.832Z,48.93
2023-05-14T08:52:33.316Z,49.13
2023-05-14T08:55:03.159Z,49.33
2023-05-14T08:57:33.158Z,49.30
2023-05-14T09:00:01.671Z,49.02
2023-05-14T09:02:31.813Z,48.79
2023-05-14T09:05:03.384Z,47.50
2023-05-14T09:07:31.237Z,48.35
2023-05-14T09:09:58.890Z,48.09
2023-05-14T09:12:25.531Z,48.27
2023-05-14T09:14:54.367Z,48.55
2023-05-14T09:17:21.354Z,48.27
2023-05-14T09:19:52.341Z,48.62
2023-05-14T09:22:20.318Z,47.47
2023-05-14T09:33:58.682Z,47.12
2023-05-14T09:36:27.780Z,47.30
2023-05-14T09:38:59.237Z,47.36
2023-05-14T09:41:27.552Z,47.34
2023-05-14T09:43:57.353Z,47.64
2023-05-14T09:46:30.181Z,47.70
2023-05-14T09:48:58.548Z,47.99
2023-05-14T09:51:26.532Z,47.19
2023-05-14T09:53:56.257Z,47.34
2023-05-14T09:56:24.351Z,47.85
2023-05-14T09:58:52.274Z,47.83
2023-05-14T10:01:21.813Z,47.84
2023-05-14T10:03:50.735Z,47.57
2023-05-14T10:06:23.703Z,47.68
2023-05-14T10:09:01.494Z,46.69
2023-05-14T10:11:36.512Z,47.46
2023-05-14T10:14:12.485Z,47.46
2023-05-14T10:16:44.078Z,47.66
2023-05-14T10:19:13.960Z,47.60
2023-05-14T10:21:46.279Z,47.35
2023-05-14T10:24:18.509Z,47.58
2023-05-14T10:26:50.266Z,47.33
2023-05-14T10:29:18.494Z,47.16
2023-05-14T10:31:54.207Z,47.74
2023-05-14T10:34:32.813Z,47.62
2023-05-14T10:37:06.765Z,47.00
2023-05-14T10:39:42.500Z,47.25
2023-05-14T10:42:15.172Z,47.63
2023-05-14T10:44:48.655Z,47.84
2023-05-14T10:47:19.617Z,47.47
2023-05-14T10:49:49.287Z,47.37
2023-05-14T10:52:22.063Z,47.14
2023-05-14T10:54:59.224Z,47.62
2023-05-14T10:57:32.777Z,47.39
2023-05-14T11:00:01.986Z,47.23
2023-05-14T11:02:37.874Z,47.48
2023-05-14T11:05:15.706Z,47.24
2023-05-14T11:07:46.222Z,47.77
2023-05-14T11:10:22.102Z,47.47
2023-05-14T11:12:51.760Z,47.02
2023-05-14T11:15:21.832Z,46.93
2023-05-14T11:17:51.224Z,46.62
2023-05-14T11:20:20.318Z,47.09
2023-05-14T11:22:51.538Z,47.38
2023-05-14T11:25:19.887Z,47.42
2023-05-14T11:27:48.921Z,47.49
2023-05-14T11:30:19.220Z,46.96
2023-05-14T11:32:50.041Z,47.21
2023-05-14T11:35:18.605Z,47.28
2023-05-14T11:37:52.330Z,46.64
2023-05-14T11:40:20.825Z,46.78
2023-05-14T11:42:52.165Z,47.49
2023-05-14T11:45:27.440Z,48.06
2023-05-14T11:47:56.049Z,47.87
2023-05-14T11:50:24.264Z,47.76
2023-05-14T11:55:49.659Z,47.85
2023-05-14T11:58:19.049Z,47.87
2023-05-14T12:00:50.639Z,47.91
2023-05-14T12:03:26.771Z,47.76
2023-05-14T12:05:59.568Z,47.94
2023-05-14T12:08:30.219Z,47.83
2023-05-14T12:11:00.030Z,47.66
2023-05-14T12:13:30.736Z,47.43
2023-05-14T12:16:00.944Z,48.09
2023-05-14T12:18:31.494Z,48.12
2023-05-14T12:21:04.306Z,48.27
2023-05-14T12:23:33.414Z,48.29
2023-05-14T12:26:03.961Z,48.52
2023-05-14T12:28:34.257Z,48.07
2023-05-14T12:31:03.659Z,47.47
2023-05-14T12:33:31.649Z,47.75
2023-05-14T12:36:17.571Z,47.50
2023-05-14T12:39:00.746Z,47.26
2023-05-14T12:41:28.815Z,47.47
2023-05-14T12:43:58.036Z,47.58
2023-05-14T12:46:29.013Z,47.49
2023-05-14T12:48:59.989Z,47.48
2023-05-14T12:51:27.975Z,47.17
2023-05-14T12:53:55.943Z,47.04
2023-05-14T12:56:28.218Z,46.96
2023-05-14T12:58:56.446Z,46.89
2023-05-14T13:01:24.931Z,46.89
2023-05-14T13:03:53.034Z,47.11
2023-05-14T13:06:21.824Z,46.94
2023-05-14T13:08:49.844Z,46.92
2023-05-14T13:11:17.766Z,47.56
2023-05-14T13:13:45.782Z,47.28
2023-05-14T13:16:16.946Z,47.19
2023-05-14T13:18:45.073Z,46.71
2023-05-14T13:21:13.086Z,47.26
2023-05-14T13:23:41.047Z,46.65
2023-05-14T13:26:09.040Z,46.09
2023-05-14T13:28:36.931Z,46.04
2023-05-14T13:31:10.561Z,46.63
2023-05-14T13:33:42.007Z,46.39
2023-05-14T13:36:11.785Z,46.40
2023-05-14T13:38:39.767Z,45.60
2023-05-14T13:41:08.354Z,45.31
2023-05-14T13:43:36.333Z,45.27
2023-05-14T13:46:06.041Z,45.44
2023-05-14T13:48:35.639Z,44.95
2023-05-14T13:51:03.700Z,45.36
2023-05-14T13:53:31.778Z,45.04
2023-05-14T13:56:01.690Z,44.61
2023-05-14T13:58:29.749Z,44.40
2023-05-14T14:00:57.750Z,45.01
2023-05-14T14:03:25.774Z,44.57
2023-05-14T14:05:53.714Z,43.95
2023-05-14T14:08:23.982Z,44.19
2023-05-14T14:10:54.719Z,44.45
2023-05-14T14:13:23.020Z,43.78
2023-05-14T14:15:51.916Z,43.75
2023-05-14T14:18:19.919Z,43.94
2023-05-14T14:21:06.324Z,43.77
2023-05-14T14:24:30.973Z,43.51
2023-05-14T14:27:09.124Z,43.82
2023-05-14T14:29:40.089Z,43.83
2023-05-14T14:32:06.970Z,43.89
2023-05-14T14:34:33.864Z,43.86
2023-05-14T14:37:00.368Z,43.82
2023-05-14T14:39:27.603Z,44.11
2023-05-14T14:41:54.416Z,44.52
2023-05-14T14:44:20.912Z,44.64
2023-05-14T14:46:47.466Z,44.84
2023-05-14T14:49:13.999Z,45.23
2023-05-14T14:51:40.551Z,45.13
2023-05-14T14:54:07.085Z,45.20
2023-05-14T14:56:33.670Z,45.22
2023-05-14T14:59:00.836Z,45.29
2023-05-14T15:01:27.429Z,45.35
2023-05-14T15:03:54.460Z,45.79
2023-05-14T15:06:21.028Z,45.48
2023-05-14T15:08:47.530Z,46.03
2023-05-14T15:11:14.292Z,46.20
2023-05-14T15:13:41.472Z,46.31
2023-05-14T15:16:08.219Z,46.38
2023-05-14T15:18:34.844Z,46.83
2023-05-14T15:21:01.604Z,46.68
2023-05-14T15:23:28.159Z,46.64
2023-05-14T15:25:54.817Z,46.77
2023-05-14T15:28:21.374Z,46.96
2023-05-14T15:30:48.073Z,47.22
2023-05-14T15:33:18.551Z,47.36
2023-05-14T15:35:45.453Z,47.24
2023-05-14T15:38:11.964Z,47.25
2023-05-14T15:40:39.852Z,47.50
2023-05-14T15:43:06.479Z,47.50
2023-05-14T15:45:33.031Z,47.64
2023-05-14T15:48:00.296Z,47.61
2023-05-14T15:50:26.997Z,47.71
2023-05-14T15:52:53.634Z,47.87
2023-05-14T15:55:20.504Z,47.84
2023-05-14T15:57:47.116Z,48.07
2023-05-14T16:00:14.117Z,48.20
2023-05-14T16:02:40.868Z,48.18
2023-05-14T16:05:07.888Z,48.38
2023-05-14T16:07:35.236Z,48.47
2023-05-14T16:10:01.865Z,48.32
2023-05-14T16:12:28.620Z,48.65
2023-05-14T16:14:56.885Z,48.68
2023-05-14T16:17:23.560Z,48.81
2023-05-14T16:19:50.264Z,48.81
2023-05-14T16:22:24.035Z,48.77
2023-05-14T16:24:52.358Z,49.00
2023-05-14T16:27:18.961Z,49.13
2023-05-14T16:29:45.791Z,49.09
2023-05-14T16:32:12.622Z,49.24
2023-05-14T16:34:39.310Z,49.19
2023-05-14T16:37:05.906Z,49.26
2023-05-14T16:39:32.443Z,49.56
2023-05-14T16:41:59.087Z,49.54
2023-05-14T16:44:25.693Z,49.60
2023-05-14T16:46:52.389Z,49.64
2023-05-14T16:49:21.631Z,49.78
2023-05-14T16:51:48.418Z,49.88
2023-05-14T16:54:15.001Z,50.05
2023-05-14T16:56:41.622Z,49.98
2023-05-14T16:59:08.283Z,50.22
2023-05-14T17:01:35.531Z,50.20
2023-05-14T17:04:02.413Z,50.42
2023-05-14T17:06:29.221Z,50.59
2023-05-14T17:08:55.794Z,50.43
2023-05-14T17:11:22.956Z,50.61
2023-05-14T17:13:58.343Z,50.75
2023-05-14T17:16:25.377Z,50.92
2023-05-14T17:18:54.374Z,50.99
2023-05-14T17:21:20.911Z,51.03
2023-05-14T17:23:47.872Z,51.10
2023-05-14T17:26:15.763Z,51.22
2023-05-14T17:28:42.259Z,51.23
2023-05-14T17:31:08.936Z,51.40
2023-05-14T17:33:35.521Z,51.49
2023-05-14T17:45:20.868Z,52.39
2023-05-14T17:47:49.788Z,52.62
2023-05-14T17:50:18.382Z,52.55
2023-05-14T17:52:47.708Z,52.71
2023-05-14T17:55:17.745Z,52.99
2023-05-14T17:57:46.227Z,53.23
2023-05-14T18:00:14.481Z,53.02
2023-05-14T18:02:42.838Z,53.34
2023-05-14T18:05:10.990Z,53.67
2023-05-14T18:07:39.001Z,53.79
2023-05-14T18:10:07.855Z,54.08
2023-05-14T18:12:35.925Z,54.13
2023-05-14T18:15:04.413Z,54.74
2023-05-14T18:17:32.366Z,55.31
2023-05-14T18:20:05.642Z,55.59
2023-05-14T18:22:34.175Z,56.29
2023-05-14T18:25:02.544Z,56.41
2023-05-14T18:27:31.223Z,56.74
2023-05-14T18:29:59.418Z,57.28
2023-05-14T18:32:27.305Z,59.19
2023-05-14T18:34:56.072Z,59.30
2023-05-14T18:37:24.818Z,60.17
2023-05-14T18:39:52.803Z,59.43
2023-05-14T18:42:21.436Z,60.18
2023-05-14T18:44:49.367Z,60.53
2023-05-14T18:47:17.360Z,60.76
2023-05-14T18:49:46.993Z,61.26
2023-05-14T18:52:14.924Z,62.22
2023-05-14T18:54:42.970Z,62.13
2023-05-14T18:57:10.890Z,62.60
2023-05-14T18:59:39.040Z,62.48
2023-05-14T19:02:06.975Z,62.86
2023-05-14T19:04:47.761Z,62.81
2023-05-14T19:07:20.144Z,63.06
2023-05-14T19:09:48.456Z,63.33
2023-05-14T19:12:16.500Z,63.63
2023-05-14T19:14:44.375Z,64.33
2023-05-14T19:17:12.332Z,64.52
2023-05-14T19:19:40.411Z,64.88
2023-05-14T19:22:08.329Z,64.87
2023-05-14T19:24:37.783Z,65.70
2023-05-14T19:27:06.061Z,65.45
2023-05-14T19:29:34.275Z,66.21
2023-05-14T19:32:02.957Z,67.08
2023-05-14T19:34:31.094Z,66.64
2023-05-14T19:36:59.092Z,66.82
2023-05-14T19:39:27.229Z,66.91
2023-05-14T19:41:55.524Z,67.48
2023-05-14T19:44:23.496Z,67.67
2023-05-14T19:46:51.668Z,68.25
2023-05-14T19:49:19.677Z,68.25
2023-05-14T19:51:48.675Z,68.48
2023-05-14T19:54:16.779Z,68.72
2023-05-14T19:56:44.795Z,68.55
2023-05-14T19:59:12.750Z,68.86
2023-05-14T20:01:41.705Z,69.45
2023-05-14T20:04:09.758Z,69.52
2023-05-14T20:06:38.229Z,70.41
2023-05-14T20:09:06.281Z,70.55
2023-05-14T20:11:34.211Z,71.05
2023-05-14T20:14:02.182Z,70.79
2023-05-14T20:16:31.706Z,70.72
2023-05-14T20:18:59.845Z,71.10
2023-05-14T20:21:28.062Z,71.52
2023-05-14T20:23:56.227Z,71.27
2023-05-14T20:26:24.258Z,71.53
2023-05-14T20:28:52.342Z,72.17
2023-05-14T20:31:21.672Z,72.00
2023-05-14T20:33:49.945Z,72.32
2023-05-14T20:36:20.600Z,72.80
2023-05-14T20:38:48.760Z,72.57
2023-05-14T20:41:16.740Z,72.59
2023-05-14T20:43:44.710Z,73.03
2023-05-14T20:46:12.804Z,72.97
2023-05-14T20:48:43.274Z,73.34
2023-05-14T20:51:11.144Z,73.70
2023-05-14T20:53:39.638Z,73.59
2023-05-14T20:56:07.720Z,73.29
2023-05-14T20:58:35.726Z,74.15
2023-05-14T21:01:04.795Z,74.21
2023-05-14T21:03:32.928Z,75.16
2023-05-14T21:06:02.636Z,75.06
2023-05-14T21:08:33.026Z,74.93
2023-05-14T21:11:01.007Z,75.62
2023-05-14T21:13:29.090Z,76.07
2023-05-14T21:15:57.145Z,77.00
2023-05-14T21:18:26.992Z,77.30
2023-05-14T21:20:55.063Z,76.75
2023-05-14T21:23:31.793Z,78.35
2023-05-14T21:25:59.765Z,78.43
2023-05-14T21:28:27.657Z,78.01
2023-05-14T21:30:55.531Z,78.65
2023-05-14T21:33:23.796Z,79.15
2023-05-14T21:35:51.752Z,80.09
2023-05-14T21:38:20.171Z,80.46
2023-05-14T21:40:48.145Z,79.92
2023-05-14T21:43:16.125Z,80.40
2023-05-14T21:45:46.741Z,80.49
2023-05-14T21:48:14.774Z,80.64
2023-05-14T21:50:42.817Z,81.79
2023-05-14T21:53:10.840Z,82.02
2023-05-14T21:55:39.071Z,82.13
2023-05-14T21:58:07.957Z,82.05
2023-05-14T22:00:35.866Z,82.40
2023-05-14T22:03:04.061Z,82.67
2023-05-14T22:05:32.085Z,83.04
2023-05-14T22:08:00.110Z,83.42
2023-05-14T22:10:28.099Z,83.79
2023-05-14T22:12:56.034Z,84.03
2023-05-14T22:15:24.142Z,83.96
2023-05-14T22:17:52.465Z,83.80
2023-05-14T22:20:20.371Z,84.36
2023-05-14T22:22:48.430Z,84.48
2023-05-14T22:25:16.521Z,84.29
2023-05-14T22:27:44.440Z,84.94
2023-05-14T22:30:12.992Z,84.57
2023-05-14T22:32:40.952Z,85.12
2023-05-14T22:35:09.114Z,85.37
2023-05-14T22:37:37.376Z,84.89
2023-05-14T22:40:06.293Z,84.90
2023-05-14T22:42:34.192Z,84.99
2023-05-14T22:45:02.129Z,85.16
2023-05-14T22:47:30.152Z,85.40
2023-05-14T22:49:58.049Z,85.41
2023-05-14T22:52:26.158Z,85.26
2023-05-14T22:54:54.648Z,85.64
2023-05-14T22:57:23.694Z,85.81
2023-05-14T22:59:51.512Z,86.29
2023-05-14T23:02:19.496Z,86.23
2023-05-14T23:04:47.627Z,86.51
2023-05-14T23:07:15.900Z,85.69
2023-05-14T23:09:43.821Z,86.68
2023-05-14T23:12:12.084Z,86.40
2023-05-14T23:14:39.964Z,86.54
2023-05-14T23:17:07.949Z,86.48
2023-05-14T23:19:36.091Z,86.83
2023-05-14T23:22:04.336Z,86.43
2023-05-14T23:24:32.257Z,86.59
2023-05-14T23:27:00.208Z,86.55
2023-05-14T23:29:28.150Z,86.85
2023-05-14T23:31:56.094Z,87.36
2023-05-14T23:34:24.024Z,87.68
2023-05-14T23:36:52.116Z,87.64
2023-05-14T23:39:20.068Z,87.59
2023-05-14T23:41:47.922Z,88.29
2023-05-14T23:44:15.790Z,88.61
2023-05-14T23:46:44.218Z,88.35
2023-05-14T23:49:12.611Z,88.57
2023-05-14T23:51:40.668Z,88.62
2023-05-14T23:54:08.552Z,88.61
2023-05-14T23:56:36.560Z,88.32
2023-05-14T23:59:04.903Z,89.00
